createdAt,value
2023-01-21T00:00:12.928Z,100708.78
2023-01-21T00:00:45.778Z,100713.41
2023-01-21T00:01:17.364Z,100712.03
2023-01-21T00:01:48.797Z,100716.13
2023-01-21T00:02:20.532Z,100716.97
2023-01-21T00:02:52.024Z,100710.97
2023-01-21T00:03:23.567Z,100716.13
2023-01-21T00:03:55.019Z,100717.75
2023-01-21T00:04:26.471Z,100726.50
2023-01-21T00:04:57.905Z,100719.69
2023-01-21T00:05:29.400Z,100718.31
2023-01-21T00:06:00.866Z,100714.78
2023-01-21T00:06:32.378Z,100720.22
2023-01-21T00:07:03.793Z,100724.59
2023-01-21T00:07:35.249Z,100722.13
2023-01-21T00:08:06.644Z,100725.97
2023-01-21T00:08:38.163Z,100718.59
2023-01-21T00:09:09.636Z,100727.03
2023-01-21T00:09:41.099Z,100724.59
2023-01-21T00:10:12.525Z,100728.94
2023-01-21T00:10:43.936Z,100724.31
2023-01-21T00:11:15.402Z,100732.22
2023-01-21T00:11:46.801Z,100737.13
2023-01-21T00:12:18.264Z,100730.03
2023-01-21T00:12:49.716Z,100729.78
2023-01-21T00:13:21.263Z,100733.59
2023-01-21T00:13:52.805Z,100737.94
2023-01-21T00:14:24.233Z,100732.22
2023-01-21T00:14:55.653Z,100733.03
2023-01-21T00:15:27.159Z,100742.03
2023-01-21T00:15:58.706Z,100748.28
2023-01-21T00:16:30.182Z,100738.22
2023-01-21T00:17:04.159Z,100739.59
2023-01-21T00:17:35.593Z,100740.41
2023-01-21T00:18:07.018Z,100733.03
2023-01-21T00:18:38.424Z,100736.31
2023-01-21T00:19:09.913Z,100738.47
2023-01-21T00:19:41.321Z,100732.75
2023-01-21T00:20:12.774Z,100738.47
2023-01-21T00:20:44.175Z,100734.66
2023-01-21T00:21:15.616Z,100739.03
2023-01-21T00:21:47.049Z,100740.13
2023-01-21T00:22:18.489Z,100745.00
2023-01-21T00:22:49.861Z,100745.00
2023-01-21T00:23:21.298Z,100741.22
2023-01-21T00:23:52.851Z,100740.88
2023-01-21T00:24:24.675Z,100747.47
2023-01-21T00:24:56.109Z,100744.19
2023-01-21T00:25:27.536Z,100747.75
2023-01-21T00:25:58.946Z,100743.66
2023-01-21T00:26:30.395Z,100745.28
2023-01-21T00:27:01.803Z,100749.66
2023-01-21T00:27:33.200Z,100749.13
2023-01-21T00:28:04.635Z,100748.28
2023-01-21T00:28:36.029Z,100750.47
2023-01-21T00:29:07.484Z,100746.66
2023-01-21T00:29:38.928Z,100753.19
2023-01-21T00:30:10.412Z,100755.38
2023-01-21T00:30:41.876Z,100750.47
2023-01-21T00:31:13.466Z,100755.91
2023-01-21T00:31:45.058Z,100750.97
2023-01-21T00:32:16.542Z,100748.78
2023-01-21T00:32:47.948Z,100749.31
2023-01-21T00:33:19.363Z,100755.56
2023-01-21T00:33:50.794Z,100757.75
2023-01-21T00:34:22.257Z,100755.28
2023-01-21T00:34:53.752Z,100762.13
2023-01-21T00:35:25.158Z,100759.38
2023-01-21T00:35:56.584Z,100754.75
2023-01-21T00:36:27.987Z,100761.28
2023-01-21T00:36:59.374Z,100762.38
2023-01-21T00:37:30.832Z,100762.66
2023-01-21T00:38:02.313Z,100762.66
2023-01-21T00:38:33.733Z,100758.84
2023-01-21T00:39:05.149Z,100759.66
2023-01-21T00:39:36.597Z,100762.34
2023-01-21T00:40:08.061Z,100761.06
2023-01-21T00:40:39.481Z,100765.09
2023-01-21T00:41:10.930Z,100767.28
2023-01-21T00:41:42.341Z,100761.03
2023-01-21T00:42:13.754Z,100762.38
2023-01-21T00:42:45.147Z,100768.94
2023-01-21T00:43:16.568Z,100770.56
2023-01-21T00:43:47.999Z,100764.56
2023-01-21T00:44:19.379Z,100764.31
2023-01-21T00:44:50.788Z,100777.13
2023-01-21T00:45:22.321Z,100770.31
2023-01-21T00:45:53.933Z,100774.69
2023-01-21T00:46:25.482Z,100775.25
2023-01-21T00:46:56.898Z,100777.66
2023-01-21T00:47:28.339Z,100771.13
2023-01-21T00:48:01.577Z,100775.25
2023-01-21T00:48:32.989Z,100773.59
2023-01-21T00:49:04.433Z,100780.72
2023-01-21T00:49:35.857Z,100780.44
2023-01-21T00:50:07.275Z,100774.69
2023-01-21T00:50:38.791Z,100780.72
2023-01-21T00:51:10.350Z,100778.53
2023-01-21T00:51:41.782Z,100778.53
2023-01-21T00:52:13.227Z,100781.28
2023-01-21T00:52:44.667Z,100782.34
2023-01-21T00:53:16.091Z,100780.72
2023-01-21T00:53:47.519Z,100781.00
2023-01-21T00:54:18.933Z,100791.34
2023-01-21T00:54:53.150Z,100784.25
2023-01-21T00:55:24.583Z,100785.91
2023-01-21T00:55:57.948Z,100786.72
2023-01-21T00:56:29.446Z,100789.19
2023-01-21T00:57:00.957Z,100793.00
2023-01-21T00:57:32.597Z,100790.00
2023-01-21T00:58:04.120Z,100795.72
2023-01-21T00:58:35.608Z,100794.63
2023-01-21T00:59:07.203Z,100800.06
2023-01-21T00:59:38.842Z,100797.06
2023-01-21T01:00:10.230Z,100798.69
2023-01-21T01:00:41.598Z,100799.53
2023-01-21T01:01:13.131Z,100794.06
2023-01-21T01:01:44.662Z,100801.16
2023-01-21T01:02:16.159Z,100799.53
2023-01-21T01:02:47.635Z,100804.97
2023-01-21T01:03:19.071Z,100803.88
2023-01-21T01:03:50.512Z,100804.44
2023-01-21T01:04:22.024Z,100798.44
2023-01-21T01:04:53.462Z,100812.06
2023-01-21T01:05:24.944Z,100807.69
2023-01-21T01:05:58.681Z,100810.97
2023-01-21T01:06:30.096Z,100807.44
2023-01-21T01:07:01.502Z,100810.97
2023-01-21T01:07:32.974Z,100818.88
2023-01-21T01:08:04.393Z,100817.50
2023-01-21T01:08:35.810Z,100816.44
2023-01-21T01:09:07.272Z,100810.16
2023-01-21T01:09:38.693Z,100818.88
2023-01-21T01:10:10.118Z,100821.81
2023-01-21T01:10:41.688Z,100823.50
2023-01-21T01:11:13.079Z,100815.06
2023-01-21T01:11:44.562Z,100817.78
2023-01-21T01:12:15.985Z,100815.88
2023-01-21T01:12:47.415Z,100819.41
2023-01-21T01:13:18.831Z,100820.50
2023-01-21T01:13:50.317Z,100823.50
2023-01-21T01:14:21.765Z,100820.78
2023-01-21T01:14:54.983Z,100824.06
2023-01-21T01:15:26.408Z,100825.63
2023-01-21T01:15:57.952Z,100826.78
2023-01-21T01:16:29.391Z,100820.50
2023-01-21T01:17:00.811Z,100826.78
2023-01-21T01:17:32.179Z,100827.34
2023-01-21T01:18:03.584Z,100826.50
2023-01-21T01:18:35.052Z,100827.03
2023-01-21T01:19:06.449Z,100832.50
2023-01-21T01:19:37.882Z,100832.22
2023-01-21T01:20:09.292Z,100831.41
2023-01-21T01:20:40.719Z,100835.50
2023-01-21T01:21:12.272Z,100835.22
2023-01-21T01:21:43.675Z,100838.44
2023-01-21T01:22:15.163Z,100837.94
2023-01-21T01:22:46.565Z,100837.69
2023-01-21T01:23:17.986Z,100835.44
2023-01-21T01:23:49.405Z,100833.25
2023-01-21T01:24:20.821Z,100840.91
2023-01-21T01:24:52.244Z,100845.03
2023-01-21T01:25:23.651Z,100838.50
2023-01-21T01:25:54.997Z,100843.41
2023-01-21T01:26:26.519Z,100840.97
2023-01-21T01:26:57.896Z,100845.31
2023-01-21T01:27:30.062Z,100850.50
2023-01-21T01:28:01.483Z,100850.22
2023-01-21T01:28:32.933Z,100841.50
2023-01-21T01:29:04.391Z,100849.34
2023-01-21T01:29:35.786Z,100853.22
2023-01-21T01:30:07.183Z,100853.72
2023-01-21T01:30:38.687Z,100845.53
2023-01-21T01:31:10.255Z,100843.41
2023-01-21T01:31:41.832Z,100848.03
2023-01-21T01:32:13.342Z,100853.22
2023-01-21T01:32:44.760Z,100848.59
2023-01-21T01:33:16.260Z,100854.53
2023-01-21T01:33:47.699Z,100863.78
2023-01-21T01:34:19.078Z,100858.94
2023-01-21T01:34:50.490Z,100854.84
2023-01-21T01:35:23.873Z,100863.03
2023-01-21T01:35:55.307Z,100862.22
2023-01-21T01:36:26.683Z,100869.31
2023-01-21T01:36:58.187Z,100862.22
2023-01-21T01:37:29.594Z,100865.19
2023-01-21T01:38:01.009Z,100861.06
2023-01-21T01:38:32.431Z,100859.97
2023-01-21T01:39:03.847Z,100860.81
2023-01-21T01:39:35.263Z,100865.44
2023-01-21T01:40:08.429Z,100866.50
2023-01-21T01:40:39.886Z,100866.50
2023-01-21T01:41:11.281Z,100864.38
2023-01-21T01:41:42.715Z,100868.75
2023-01-21T01:42:14.207Z,100867.94
2023-01-21T01:42:45.617Z,100867.94
2023-01-21T01:43:17.030Z,100872.28
2023-01-21T01:43:48.434Z,100872.28
2023-01-21T01:44:19.860Z,100876.34
2023-01-21T01:44:51.342Z,100875.84
2023-01-21T01:45:22.787Z,100877.16
2023-01-21T01:45:54.253Z,100875.50
2023-01-21T01:46:25.716Z,100880.13
2023-01-21T01:46:57.157Z,100883.69
2023-01-21T01:47:28.637Z,100875.28
2023-01-21T01:48:00.076Z,100884.50
2023-01-21T01:48:31.487Z,100883.69
2023-01-21T01:49:02.920Z,100885.91
2023-01-21T01:49:34.327Z,100888.66
2023-01-21T01:50:05.744Z,100885.31
2023-01-21T01:50:37.144Z,100886.75
2023-01-21T01:51:08.693Z,100883.19
2023-01-21T01:51:40.167Z,100883.44
2023-01-21T01:52:14.328Z,100886.75
2023-01-21T01:52:45.736Z,100894.34
2023-01-21T01:53:17.149Z,100884.50
2023-01-21T01:53:48.580Z,100892.44
2023-01-21T01:54:20.029Z,100888.66
2023-01-21T01:54:51.459Z,100891.88
2023-01-21T01:55:22.848Z,100896.81
2023-01-21T01:55:54.256Z,100902.00
2023-01-21T01:56:25.837Z,100898.97
2023-01-21T01:56:57.244Z,100899.81
2023-01-21T01:57:28.686Z,100908.81
2023-01-21T01:58:00.111Z,100907.41
2023-01-21T01:58:31.494Z,100911.53
2023-01-21T01:59:02.892Z,100904.66
2023-01-21T01:59:34.374Z,100912.84
2023-01-21T02:00:05.827Z,100910.66
2023-01-21T02:00:37.260Z,100915.56
2023-01-21T02:01:08.709Z,100907.97
2023-01-21T02:01:40.246Z,100910.44
2023-01-21T02:02:11.636Z,100915.84
2023-01-21T02:02:45.794Z,100917.47
2023-01-21T02:03:17.241Z,100916.09
2023-01-21T02:03:48.671Z,100916.38
2023-01-21T02:04:20.123Z,100912.81
2023-01-21T02:04:51.518Z,100918.28
2023-01-21T02:05:22.946Z,100920.75
2023-01-21T02:05:54.338Z,100919.94
2023-01-21T02:06:25.739Z,100920.75
2023-01-21T02:06:57.267Z,100921.03
2023-01-21T02:07:28.684Z,100918.03
2023-01-21T02:08:00.072Z,100919.94
2023-01-21T02:08:31.514Z,100922.66
2023-01-21T02:09:02.979Z,100915.63
2023-01-21T02:09:34.399Z,100919.13
2023-01-21T02:10:05.870Z,100917.72
2023-01-21T02:10:37.323Z,100921.59
2023-01-21T02:11:08.775Z,100922.44
2023-01-21T02:11:40.256Z,100925.66
2023-01-21T02:12:11.661Z,100925.38
2023-01-21T02:12:43.104Z,100923.75
2023-01-21T02:13:14.559Z,100926.72
2023-01-21T02:13:46.000Z,100924.28
2023-01-21T02:14:17.373Z,100927.25
2023-01-21T02:14:48.800Z,100931.09
2023-01-21T02:15:20.194Z,100931.09
2023-01-21T02:15:51.592Z,100928.94
2023-01-21T02:16:23.178Z,100934.38
2023-01-21T02:16:54.612Z,100925.38
2023-01-21T02:17:26.045Z,100933.00
2023-01-21T02:17:57.502Z,100929.72
2023-01-21T02:18:28.922Z,100925.91
2023-01-21T02:19:00.397Z,100928.13
2023-01-21T02:19:31.814Z,100937.09
2023-01-21T02:20:03.275Z,100927.00
2023-01-21T02:20:34.676Z,100932.75
2023-01-21T02:21:06.103Z,100932.75
2023-01-21T02:21:37.530Z,100926.72
2023-01-21T02:22:08.892Z,100933.81
2023-01-21T02:22:40.288Z,100933.34
2023-01-21T02:23:11.758Z,100929.19
2023-01-21T02:23:43.135Z,100930.53
2023-01-21T02:24:14.550Z,100937.63
2023-01-21T02:24:46.003Z,100934.91
2023-01-21T02:25:17.401Z,100935.72
2023-01-21T02:25:48.765Z,100929.53
2023-01-21T02:26:20.190Z,100938.78
2023-01-21T02:26:51.727Z,100943.66
2023-01-21T02:27:30.202Z,100937.09
2023-01-21T02:28:02.298Z,100941.50
2023-01-21T02:28:33.760Z,100936.56
2023-01-21T02:29:05.140Z,100933.00
2023-01-21T02:29:36.558Z,100941.75
2023-01-21T02:30:07.971Z,100939.28
2023-01-21T02:30:39.485Z,100935.22
2023-01-21T02:31:10.946Z,100943.09
2023-01-21T02:31:42.386Z,100940.09
2023-01-21T02:32:13.856Z,100940.09
2023-01-21T02:32:47.912Z,100942.81
2023-01-21T02:33:19.307Z,100941.75
2023-01-21T02:33:50.746Z,100938.53
2023-01-21T02:34:22.163Z,100937.09
2023-01-21T02:34:53.555Z,100937.97
2023-01-21T02:35:25.063Z,100935.72
2023-01-21T02:35:56.473Z,100937.63
2023-01-21T02:36:27.862Z,100937.06
2023-01-21T02:36:59.263Z,100942.25
2023-01-21T02:37:30.708Z,100942.00
2023-01-21T02:38:02.119Z,100940.91
2023-01-21T02:38:33.509Z,100943.34
2023-01-21T02:39:04.946Z,100943.09
2023-01-21T02:39:36.410Z,100941.19
2023-01-21T02:40:07.835Z,100943.09
2023-01-21T02:40:39.242Z,100948.53
2023-01-21T02:41:10.684Z,100945.00
2023-01-21T02:41:42.070Z,100947.16
2023-01-21T02:42:13.509Z,100944.72
2023-01-21T02:42:44.960Z,100944.44
2023-01-21T02:43:16.360Z,100951.25
2023-01-21T02:43:47.794Z,100945.00
2023-01-21T02:44:19.170Z,100946.88
2023-01-21T02:44:50.551Z,100941.19
2023-01-21T02:45:21.978Z,100949.34
2023-01-21T02:45:53.381Z,100949.88
2023-01-21T02:46:24.819Z,100958.06
2023-01-21T02:46:56.302Z,100953.16
2023-01-21T02:47:27.794Z,100956.97
2023-01-21T02:47:59.258Z,100949.34
2023-01-21T02:48:30.651Z,100958.09
2023-01-21T02:49:02.111Z,100956.16
2023-01-21T02:49:33.501Z,100953.97
2023-01-21T02:50:07.831Z,100952.63
2023-01-21T02:50:39.256Z,100947.72
2023-01-21T02:51:10.656Z,100955.88
2023-01-21T02:51:42.079Z,100951.53
2023-01-21T02:52:13.477Z,100952.34
2023-01-21T02:52:44.879Z,100957.22
2023-01-21T02:53:16.334Z,100961.59
2023-01-21T02:53:47.769Z,100962.44
2023-01-21T02:54:19.152Z,100954.78
2023-01-21T02:54:50.565Z,100957.50
2023-01-21T02:55:21.941Z,100956.97
2023-01-21T02:55:53.415Z,100956.72
2023-01-21T02:56:24.828Z,100964.88
2023-01-21T02:56:56.210Z,100961.31
2023-01-21T02:57:27.610Z,100961.88
2023-01-21T02:57:59.028Z,100967.31
2023-01-21T02:58:30.495Z,100961.88
2023-01-21T02:59:01.887Z,100965.16
2023-01-21T02:59:33.288Z,100967.63
2023-01-21T03:00:04.667Z,100965.41
2023-01-21T03:00:36.159Z,100968.41
2023-01-21T03:01:07.613Z,100961.88
2023-01-21T03:01:39.032Z,100967.63
2023-01-21T03:02:10.519Z,100972.25
2023-01-21T03:02:42.005Z,100965.72
2023-01-21T03:03:13.435Z,100968.16
2023-01-21T03:03:44.926Z,100967.63
2023-01-21T03:04:16.394Z,100969.50
2023-01-21T03:04:47.853Z,100971.16
2023-01-21T03:05:19.267Z,100969.81
2023-01-21T03:05:50.670Z,100970.06
2023-01-21T03:06:22.082Z,100971.97
2023-01-21T03:06:53.458Z,100968.69
2023-01-21T03:07:24.844Z,100970.06
2023-01-21T03:07:56.268Z,100974.44
2023-01-21T03:08:27.681Z,100977.69
2023-01-21T03:08:59.161Z,100973.06
2023-01-21T03:09:30.573Z,100985.88
2023-01-21T03:10:02.028Z,100975.22
2023-01-21T03:10:33.476Z,100977.94
2023-01-21T03:11:04.858Z,100971.41
2023-01-21T03:11:36.462Z,100969.78
2023-01-21T03:12:07.848Z,100972.81
2023-01-21T03:12:39.267Z,100973.59
2023-01-21T03:13:10.666Z,100978.78
2023-01-21T03:13:42.123Z,100975.78
2023-01-21T03:14:13.586Z,100975.78
2023-01-21T03:14:45.060Z,100975.78
2023-01-21T03:15:16.499Z,100975.22
2023-01-21T03:15:50.473Z,100973.06
2023-01-21T03:16:21.904Z,100968.44
2023-01-21T03:16:53.542Z,100968.44
2023-01-21T03:17:24.945Z,100969.50
2023-01-21T03:17:56.444Z,100972.50
2023-01-21T03:18:27.889Z,100971.16
2023-01-21T03:18:59.308Z,100970.84
2023-01-21T03:19:30.803Z,100975.53
2023-01-21T03:20:02.211Z,100971.97
2023-01-21T03:20:33.609Z,100972.25
2023-01-21T03:21:05.004Z,100965.97
2023-01-21T03:21:36.386Z,100972.81
2023-01-21T03:22:10.046Z,100966.53
2023-01-21T03:22:41.480Z,100972.81
2023-01-21T03:23:12.949Z,100971.97
2023-01-21T03:23:44.357Z,100971.16
2023-01-21T03:24:15.786Z,100964.88
2023-01-21T03:24:47.282Z,100971.16
2023-01-21T03:25:18.732Z,100977.44
2023-01-21T03:25:50.129Z,100973.31
2023-01-21T03:26:21.601Z,100969.50
2023-01-21T03:26:52.983Z,100962.44
2023-01-21T03:27:24.370Z,100973.88
2023-01-21T03:27:55.779Z,100974.44
2023-01-21T03:28:27.213Z,100977.44
2023-01-21T03:28:58.643Z,100973.06
2023-01-21T03:29:30.085Z,100978.78
2023-01-21T03:30:01.517Z,100978.78
2023-01-21T03:30:33.041Z,100973.31
2023-01-21T03:31:04.581Z,100979.34
2023-01-21T03:31:36.058Z,100973.06
2023-01-21T03:32:07.505Z,100977.69
2023-01-21T03:32:38.940Z,100971.16
2023-01-21T03:33:10.407Z,100969.00
2023-01-21T03:33:41.766Z,100973.63
2023-01-21T03:34:13.207Z,100968.69
2023-01-21T03:34:44.637Z,100968.69
2023-01-21T03:35:16.089Z,100968.97
2023-01-21T03:35:47.511Z,100970.84
2023-01-21T03:36:18.891Z,100972.50
2023-01-21T03:36:50.280Z,100970.06
2023-01-21T03:37:21.702Z,100971.97
2023-01-21T03:37:53.111Z,100968.97
2023-01-21T03:38:24.475Z,100969.22
2023-01-21T03:38:55.881Z,100968.41
2023-01-21T03:39:27.317Z,100973.28
2023-01-21T03:39:58.737Z,100971.94
2023-01-21T03:40:30.242Z,100971.13
2023-01-21T03:41:01.694Z,100976.88
2023-01-21T03:41:33.094Z,100975.50
2023-01-21T03:42:04.456Z,100972.75
2023-01-21T03:42:35.858Z,100973.84
2023-01-21T03:43:07.424Z,100973.03
2023-01-21T03:43:38.965Z,100974.94
2023-01-21T03:44:10.369Z,100972.75
2023-01-21T03:44:41.757Z,100970.84
2023-01-21T03:45:13.181Z,100974.66
2023-01-21T03:45:44.674Z,100972.25
2023-01-21T03:46:16.133Z,100975.78
2023-01-21T03:46:47.495Z,100982.06
2023-01-21T03:47:18.873Z,100979.84
2023-01-21T03:47:50.237Z,100980.13
2023-01-21T03:48:21.675Z,100979.84
2023-01-21T03:48:53.120Z,100980.94
2023-01-21T03:49:24.528Z,100986.13
2023-01-21T03:49:58.685Z,100980.41
2023-01-21T03:50:30.218Z,100988.03
2023-01-21T03:51:01.736Z,100985.31
2023-01-21T03:51:33.169Z,100981.50
2023-01-21T03:52:04.587Z,100984.47
2023-01-21T03:52:36.003Z,100985.25
2023-01-21T03:53:07.479Z,100985.00
2023-01-21T03:53:38.873Z,100982.84
2023-01-21T03:54:13.247Z,100988.28
2023-01-21T03:54:44.681Z,100978.22
2023-01-21T03:55:16.080Z,100987.78
2023-01-21T03:55:47.428Z,100982.31
2023-01-21T03:56:18.903Z,100983.13
2023-01-21T03:56:50.290Z,100982.59
2023-01-21T03:57:21.727Z,100983.66
2023-01-21T03:57:53.152Z,100985.31
2023-01-21T03:58:24.540Z,100983.66
2023-01-21T03:58:55.940Z,100986.38
2023-01-21T03:59:27.343Z,100989.63
2023-01-21T03:59:58.730Z,100988.59
2023-01-21T04:00:30.183Z,100987.22
2023-01-21T04:01:01.811Z,100985.88
2023-01-21T04:01:33.286Z,100990.50
2023-01-21T04:02:04.692Z,100992.13
2023-01-21T04:02:36.171Z,100986.69
2023-01-21T04:03:07.597Z,100992.66
2023-01-21T04:03:39.028Z,100998.09
2023-01-21T04:04:10.469Z,100990.47
2023-01-21T04:04:41.877Z,100989.94
2023-01-21T04:05:13.269Z,100986.38
2023-01-21T04:05:44.717Z,100990.19
2023-01-21T04:06:16.195Z,100986.38
2023-01-21T04:06:47.640Z,100992.34
2023-01-21T04:07:19.066Z,100989.38
2023-01-21T04:07:52.004Z,100986.13
2023-01-21T04:08:23.480Z,100991.56
2023-01-21T04:08:54.943Z,100999.19
2023-01-21T04:09:26.334Z,100991.31
2023-01-21T04:09:57.771Z,100992.66
2023-01-21T04:10:29.184Z,100997.28
2023-01-21T04:11:00.646Z,101001.66
2023-01-21T04:11:32.097Z,101000.84
2023-01-21T04:12:03.593Z,100996.78
2023-01-21T04:12:35.042Z,100991.28
2023-01-21T04:13:06.456Z,101000.28
2023-01-21T04:13:37.869Z,100994.56
2023-01-21T04:14:09.297Z,100998.38
2023-01-21T04:14:40.760Z,100998.38
2023-01-21T04:15:12.205Z,101005.16
2023-01-21T04:15:43.584Z,100999.44
2023-01-21T04:16:15.029Z,101003.25
2023-01-21T04:16:46.478Z,100997.56
2023-01-21T04:17:17.975Z,100999.72
2023-01-21T04:17:49.358Z,101003.56
2023-01-21T04:18:20.795Z,100997.81
2023-01-21T04:18:52.148Z,101001.09
2023-01-21T04:19:23.539Z,101002.19
2023-01-21T04:19:55.006Z,100997.81
2023-01-21T04:20:26.421Z,101001.34
2023-01-21T04:20:57.834Z,101004.09
2023-01-21T04:21:29.230Z,101009.78
2023-01-21T04:22:00.619Z,101000.28
2023-01-21T04:22:32.087Z,101006.81
2023-01-21T04:23:03.519Z,101010.34
2023-01-21T04:23:34.952Z,101008.19
2023-01-21T04:24:06.355Z,101005.47
2023-01-21T04:24:37.755Z,101009.00
2023-01-21T04:25:09.144Z,101014.47
2023-01-21T04:25:40.617Z,101006.28
2023-01-21T04:26:12.004Z,101013.63
2023-01-21T04:26:43.461Z,101014.41
2023-01-21T04:27:14.893Z,101013.91
2023-01-21T04:27:46.366Z,101016.38
2023-01-21T04:28:17.797Z,101014.47
2023-01-21T04:28:49.199Z,101014.72
2023-01-21T04:29:20.636Z,101014.97
2023-01-21T04:29:52.032Z,101013.63
2023-01-21T04:30:23.445Z,101019.91
2023-01-21T04:30:54.904Z,101018.28
2023-01-21T04:31:26.345Z,101019.09
2023-01-21T04:31:57.876Z,101014.72
2023-01-21T04:32:29.312Z,101018.28
2023-01-21T04:33:00.829Z,101017.44
2023-01-21T04:33:32.300Z,101013.34
2023-01-21T04:34:03.736Z,101023.41
2023-01-21T04:34:35.159Z,101016.56
2023-01-21T04:35:06.577Z,101022.06
2023-01-21T04:35:38.008Z,101025.06
2023-01-21T04:36:09.382Z,101025.63
2023-01-21T04:36:40.784Z,101016.63
2023-01-21T04:37:12.194Z,101016.09
2023-01-21T04:37:43.576Z,101023.47
2023-01-21T04:38:15.060Z,101017.44
2023-01-21T04:38:46.440Z,101019.34
2023-01-21T04:39:17.828Z,101023.41
2023-01-21T04:39:49.265Z,101021.25
2023-01-21T04:40:20.685Z,101026.69
2023-01-21T04:40:54.280Z,101023.97
2023-01-21T04:41:25.711Z,101022.06
2023-01-21T04:41:57.150Z,101021.81
2023-01-21T04:42:28.587Z,101018.53
2023-01-21T04:42:59.988Z,101016.88
2023-01-21T04:43:31.461Z,101012.50
2023-01-21T04:44:02.877Z,101016.31
2023-01-21T04:44:34.282Z,101016.88
2023-01-21T04:45:05.724Z,101025.88
2023-01-21T04:45:37.187Z,101014.72
2023-01-21T04:46:08.659Z,101018.53
2023-01-21T04:46:40.099Z,101019.59
2023-01-21T04:47:11.483Z,101019.59
2023-01-21T04:47:42.915Z,101018.53
2023-01-21T04:48:14.309Z,101013.91
2023-01-21T04:48:45.797Z,101015.25
2023-01-21T04:49:17.278Z,101021.25
2023-01-21T04:49:48.745Z,101017.44
2023-01-21T04:50:20.186Z,101020.16
2023-01-21T04:50:51.587Z,101025.63
2023-01-21T04:51:23.085Z,101019.91
2023-01-21T04:51:54.615Z,101020.47
2023-01-21T04:52:26.061Z,101021.56
2023-01-21T04:52:57.467Z,101023.41
2023-01-21T04:53:28.935Z,101021.50
2023-01-21T04:54:00.313Z,101025.31
2023-01-21T04:54:31.720Z,101027.22
2023-01-21T04:55:03.201Z,101028.03
2023-01-21T04:55:34.660Z,101028.03
2023-01-21T04:56:06.175Z,101029.44
2023-01-21T04:56:37.608Z,101029.44
2023-01-21T04:57:09.036Z,101034.56
2023-01-21T04:57:40.481Z,101031.84
2023-01-21T04:58:11.890Z,101033.50
2023-01-21T04:58:43.348Z,101028.59
2023-01-21T04:59:14.731Z,101031.34
2023-01-21T04:59:46.117Z,101036.78
2023-01-21T05:00:17.740Z,101036.78
2023-01-21T05:00:49.328Z,101038.72
2023-01-21T05:01:20.785Z,101039.25
2023-01-21T05:01:52.238Z,101047.94
2023-01-21T05:02:23.718Z,101039.25
2023-01-21T05:02:55.228Z,101040.06
2023-01-21T05:03:26.606Z,101041.97
2023-01-21T05:03:57.989Z,101042.53
2023-01-21T05:04:29.357Z,101042.28
2023-01-21T05:05:00.804Z,101041.19
2023-01-21T05:05:32.211Z,101044.75
2023-01-21T05:06:03.709Z,101045.81
2023-01-21T05:06:35.124Z,101050.44
2023-01-21T05:07:06.536Z,101042.00
2023-01-21T05:07:37.980Z,101051.56
2023-01-21T05:08:09.487Z,101055.66
2023-01-21T05:08:40.915Z,101051.28
2023-01-21T05:09:12.362Z,101051.53
2023-01-21T05:09:43.793Z,101046.34
2023-01-21T05:10:15.334Z,101050.16
2023-01-21T05:10:46.850Z,101047.41
2023-01-21T05:11:18.252Z,101049.88
2023-01-21T05:11:49.699Z,101049.59
2023-01-21T05:12:21.123Z,101048.25
2023-01-21T05:12:52.517Z,101054.25
2023-01-21T05:13:24.001Z,101047.47
2023-01-21T05:13:55.443Z,101044.44
2023-01-21T05:14:26.843Z,101048.81
2023-01-21T05:14:58.287Z,101048.81
2023-01-21T05:15:29.715Z,101045.53
2023-01-21T05:16:01.207Z,101041.72
2023-01-21T05:16:32.652Z,101048.25
2023-01-21T05:17:04.093Z,101049.31
2023-01-21T05:17:35.630Z,101046.84
2023-01-21T05:18:07.038Z,101047.94
2023-01-21T05:18:41.083Z,101047.38
2023-01-21T05:19:12.676Z,101052.88
2023-01-21T05:19:44.115Z,101053.69
2023-01-21T05:20:16.009Z,101049.31
2023-01-21T05:20:47.566Z,101051.78
2023-01-21T05:21:18.996Z,101055.59
2023-01-21T05:21:50.396Z,101050.97
2023-01-21T05:22:21.813Z,101047.94
2023-01-21T05:22:53.202Z,101042.22
2023-01-21T05:23:24.662Z,101052.31
2023-01-21T05:23:56.121Z,101042.75
2023-01-21T05:24:27.533Z,101055.28
2023-01-21T05:24:58.950Z,101055.28
2023-01-21T05:25:30.330Z,101053.66
2023-01-21T05:26:01.784Z,101056.38
2023-01-21T05:26:33.176Z,101057.72
2023-01-21T05:27:04.567Z,101055.56
2023-01-21T05:27:36.005Z,101055.56
2023-01-21T05:28:07.439Z,101063.22
2023-01-21T05:28:38.852Z,101050.66
2023-01-21T05:29:10.311Z,101056.38
2023-01-21T05:29:41.727Z,101059.41
2023-01-21T05:30:13.118Z,101061.56
2023-01-21T05:30:44.774Z,101062.66
2023-01-21T05:31:16.347Z,101069.19
2023-01-21T05:31:47.931Z,101064.28
2023-01-21T05:32:19.379Z,101062.66
2023-01-21T05:32:50.808Z,101063.97
2023-01-21T05:33:22.236Z,101064.81
2023-01-21T05:33:53.609Z,101070.81
2023-01-21T05:34:25.113Z,101067.28
2023-01-21T05:34:56.550Z,101063.22
2023-01-21T05:35:27.954Z,101059.91
2023-01-21T05:36:02.263Z,101059.41
2023-01-21T05:36:33.702Z,101056.13
2023-01-21T05:37:05.127Z,101067.00
2023-01-21T05:37:36.541Z,101062.91
2023-01-21T05:38:07.936Z,101064.53
2023-01-21T05:38:39.331Z,101061.00
2023-01-21T05:39:10.732Z,101063.47
2023-01-21T05:39:42.202Z,101062.38
2023-01-21T05:40:13.662Z,101070.00
2023-01-21T05:40:45.160Z,101065.38
2023-01-21T05:41:16.596Z,101065.94
2023-01-21T05:41:48.020Z,101065.38
2023-01-21T05:42:19.415Z,101067.84
2023-01-21T05:42:50.829Z,101067.84
2023-01-21T05:43:22.237Z,101065.31
2023-01-21T05:43:53.700Z,101065.06
2023-01-21T05:44:25.170Z,101074.63
2023-01-21T05:44:56.622Z,101066.72
2023-01-21T05:45:28.110Z,101071.91
2023-01-21T05:45:59.539Z,101080.91
2023-01-21T05:46:30.974Z,101078.75
2023-01-21T05:47:02.401Z,101076.84
2023-01-21T05:47:33.774Z,101079.00
2023-01-21T05:48:05.238Z,101079.56
2023-01-21T05:48:36.623Z,101083.94
2023-01-21T05:49:08.076Z,101086.91
2023-01-21T05:49:39.456Z,101082.03
2023-01-21T05:50:10.943Z,101083.38
2023-01-21T05:50:42.359Z,101080.91
2023-01-21T05:51:13.825Z,101084.69
2023-01-21T05:51:45.280Z,101078.44
2023-01-21T05:52:16.686Z,101084.44
2023-01-21T05:52:48.073Z,101085.84
2023-01-21T05:53:19.508Z,101083.88
2023-01-21T05:53:50.917Z,101091.28
2023-01-21T05:54:22.382Z,101094.00
2023-01-21T05:55:01.913Z,101094.25
2023-01-21T05:55:34.136Z,101094.78
2023-01-21T05:56:05.504Z,101103.47
2023-01-21T05:56:36.916Z,101099.97
2023-01-21T05:57:08.338Z,101112.22
2023-01-21T05:57:39.772Z,101100.75
2023-01-21T05:58:11.168Z,101103.78
2023-01-21T05:58:42.687Z,101108.41
2023-01-21T05:59:14.096Z,101104.03
2023-01-21T05:59:45.513Z,101093.13